Time;durP1;ratioP1;P1;durP2;ratioP2;P2;SDS_P1;SDS_P2;PMS_P1;PMS_P2;Temp;Humidity;BMP_temperature;BMP_pressure;BME280_temperature;BME280_humidity;BME280_pressure;Samples;Min_cycle;Max_cycle;Signal;HPM_P1;HPM_P2
2022/08/06 00:02:30;;;;;;;9.60;8.20;;;;;;;21.41;85.01;100343.22;1732377;82;21075;-62
2022/08/06 00:05:01;;;;;;;13.70;9.13;;;;;;;21.39;85.07;100341.26;1701112;84;21083;-62
2022/08/06 00:07:33;;;;;;;12.68;8.70;;;;;;;21.37;85.32;100347.11;1693107;85;21509;-62
2022/08/06 00:10:05;;;;;;;9.83;8.60;;;;;;;21.36;85.40;100345.98;1669945;85;21107;-70
2022/08/06 00:12:35;;;;;;;12.98;9.00;;;;;;;21.34;85.41;100344.02;1672308;86;21031;-61
2022/08/06 00:15:06;;;;;;;10.75;8.23;;;;;;;21.32;85.60;100349.87;1682103;84;21053;-62
2022/08/06 00:17:38;;;;;;;10.35;8.40;;;;;;;21.29;85.67;100352.36;1673769;85;21031;-61
2022/08/06 00:20:09;;;;;;;9.73;8.23;;;;;;;21.24;85.67;100360.69;1680210;85;21011;-62
2022/08/06 00:22:40;;;;;;;11.63;8.75;;;;;;;21.21;85.62;100355.06;1685951;85;21044;-61
2022/08/06 00:25:10;;;;;;;10.68;8.10;;;;;;;21.18;85.46;100366.75;1687078;85;21031;-62
2022/08/06 00:27:39;;;;;;;10.25;8.20;;;;;;;21.18;85.32;100364.80;1684321;85;21070;-62
2022/08/06 00:30:11;;;;;;;9.23;8.08;;;;;;;21.19;85.11;100366.48;1687309;85;21039;-62
2022/08/06 00:32:42;;;;;;;11.03;8.38;;;;;;;21.19;85.09;100372.05;1689369;85;21056;-63
2022/08/06 00:35:12;;;;;;;14.40;9.25;;;;;;;21.19;84.97;100366.48;1685579;85;21095;-63
2022/08/06 00:37:43;;;;;;;11.05;8.88;;;;;;;21.17;84.86;100365.91;1685676;85;21476;-60
2022/08/06 00:40:15;;;;;;;10.72;8.28;;;;;;;21.15;84.75;100366.73;1683171;85;21071;-61
2022/08/06 00:42:46;;;;;;;10.45;8.65;;;;;;;21.12;84.77;100374.23;1684597;85;21448;-61
2022/08/06 00:45:17;;;;;;;9.98;8.03;;;;;;;21.08;84.88;100370.86;1689852;85;21526;-62
2022/08/06 00:47:48;;;;;;;10.23;8.48;;;;;;;21.04;85.16;100378.91;1689669;85;21059;-62
2022/08/06 00:50:19;;;;;;;11.73;9.35;;;;;;;21.02;85.21;100379.73;1686748;85;21085;-61
2022/08/06 00:52:49;;;;;;;13.08;8.78;;;;;;;21.00;85.32;100376.37;1706035;84;21084;-61
2022/08/06 00:55:20;;;;;;;13.03;8.83;;;;;;;20.99;85.28;100378.03;1699481;83;21467;-61
2022/08/06 00:57:51;;;;;;;10.95;8.50;;;;;;;20.95;85.22;100372.71;1701005;84;21074;-63
2022/08/06 01:00:22;;;;;;;10.43;8.85;;;;;;;20.92;85.18;100379.66;1702613;84;21133;-63
2022/08/06 01:02:54;;;;;;;9.45;8.43;;;;;;;20.88;85.14;100375.17;1701948;84;21058;-62
2022/08/06 01:05:25;;;;;;;10.10;8.28;;;;;;;20.86;85.09;100379.33;1698474;84;21048;-61
2022/08/06 01:07:56;;;;;;;11.90;7.47;;;;;;;20.87;84.74;100379.06;1688082;85;21076;-60
2022/08/06 01:10:28;;;;;;;10.38;6.80;;;;;;;20.87;83.29;100378.22;1693231;84;21102;-61
2022/08/06 01:13:00;;;;;;;9.00;6.90;;;;;;;20.86;82.71;100372.37;1691199;85;21079;-62
2022/08/06 01:15:37;;;;;;;11.05;7.05;;;;;;;20.86;82.25;100372.37;1660829;84;21181;-61
2022/08/06 01:18:14;;;;;;;8.50;6.67;;;;;;;20.88;81.51;100379.91;1701608;84;21008;-62
2022/08/06 01:20:55;;;;;;;7.12;6.30;;;;;;;20.85;81.12;100375.70;1726769;83;21454;-62
2022/08/06 01:23:38;;;;;;;7.50;5.72;;;;;;;20.85;80.80;100375.70;1694171;84;21046;-61
2022/08/06 01:26:50;;;;;;;8.68;6.92;;;;;;;20.86;80.42;100382.95;1726978;83;21038;-60
2022/08/06 01:29:27;;;;;;;8.20;7.08;;;;;;;20.84;80.35;100383.77;1695014;84;21075;-67
2022/08/06 01:32:07;;;;;;;;;;;;;;;20.79;80.47;100375.89;1726947;83;21118;-62
2022/08/06 01:34:54;;;;;;;7.85;6.40;;;;;;;20.77;80.43;100382.28;1711449;83;20188;-62
2022/08/06 01:37:30;;;;;;;8.93;6.55;;;;;;;20.72;80.55;100379.45;1711137;84;21016;-62
2022/08/06 01:40:05;;;;;;;7.97;6.87;;;;;;;20.69;80.56;100377.20;1709718;83;21051;-63
2022/08/06 01:42:36;;;;;;;8.85;6.60;;;;;;;20.67;80.57;100378.02;1714346;83;21995;-61
2022/08/06 01:45:09;;;;;;;10.13;7.37;;;;;;;20.66;80.64;100374.95;1728021;83;21090;-61
2022/08/06 01:47:40;;;;;;;11.08;6.50;;;;;;;20.66;80.51;100379.13;1701462;83;21059;-62
2022/08/06 01:50:12;;;;;;;8.33;6.40;;;;;;;20.65;80.51;100377.45;1720493;83;21083;-62
2022/08/06 01:52:43;;;;;;;8.95;6.78;;;;;;;20.62;80.50;100376.03;1711011;84;21416;-63
2022/08/06 01:55:16;;;;;;;7.20;6.50;;;;;;;20.61;80.41;100377.69;1708679;84;21056;-62
2022/08/06 01:57:53;;;;;;;8.48;6.47;;;;;;;20.57;80.45;100374.04;1717139;83;21060;-66
2022/08/06 02:00:24;;;;;;;10.63;5.80;;;;;;;20.54;80.59;100380.13;1689666;85;22013;-61
2022/08/06 02:02:58;;;;;;;10.00;6.67;;;;;;;20.49;80.79;100381.48;1721700;83;21474;-64
2022/08/06 02:05:28;;;;;;;9.43;7.10;;;;;;;20.41;81.13;100379.72;1720238;83;21095;-62
2022/08/06 02:07:59;;;;;;;11.20;7.50;;;;;;;20.38;81.41;100379.67;1694592;84;21052;-63
2022/08/06 02:10:31;;;;;;;13.90;8.05;;;;;;;20.35;81.57;100387.15;1720145;82;21495;-63
2022/08/06 02:13:02;;;;;;;9.20;6.95;;;;;;;20.36;81.69;100387.44;1716793;83;21039;-63
2022/08/06 02:15:31;;;;;;;9.48;7.28;;;;;;;20.33;81.71;100385.73;1694815;85;21047;-62
2022/08/06 02:18:04;;;;;;;9.43;7.15;;;;;;;20.26;81.97;100381.77;1719098;83;21059;-62
2022/08/06 02:20:42;;;;;;;9.75;8.03;;;;;;;20.22;82.29;100386.17;1693597;85;21062;-62
2022/08/06 02:23:20;;;;;;;10.25;7.97;;;;;;;20.19;82.54;100386.15;1714230;83;21071;-62
2022/08/06 02:25:51;;;;;;;;;;;;;;;20.19;82.64;100395.05;1725158;83;21070;-60
2022/08/06 02:28:24;;;;;;;10.48;7.83;;;;;;;20.18;82.74;100387.80;1721835;83;20235;-60
2022/08/06 02:30:55;;;;;;;10.45;7.75;;;;;;;20.10;83.02;100384.91;1713411;83;21011;-61
2022/08/06 02:33:27;;;;;;;9.68;7.33;;;;;;;20.06;83.37;100391.25;1709492;83;21056;-62
2022/08/06 02:36:12;;;;;;;10.10;7.62;;;;;;;20.01;83.70;100385.63;1740301;82;21040;-61
2022/08/06 02:38:56;;;;;;;8.05;6.60;;;;;;;20.00;83.82;100390.90;1741977;82;21871;-61
2022/08/06 02:41:37;;;;;;;9.55;7.33;;;;;;;19.98;83.85;100393.94;1668750;86;21043;-61
2022/08/06 02:44:18;;;;;;;13.70;7.65;;;;;;;19.99;83.99;100397.02;1679942;85;21064;-64
2022/08/06 02:47:14;;;;;;;10.38;7.30;;;;;;;19.99;84.09;100393.39;1744782;82;21456;-62
2022/08/06 02:49:48;;;;;;;12.13;7.28;;;;;;;19.99;84.05;100394.78;1745980;81;21455;-62
2022/08/06 02:52:24;;;;;;;9.08;6.47;;;;;;;19.99;83.81;100397.02;1755682;81;21054;-61
2022/08/06 02:55:01;;;;;;;23.75;8.75;;;;;;;20.01;83.75;100396.20;1761102;81;21490;-63
2022/08/06 02:57:40;;;;;;;12.37;7.25;;;;;;;20.03;83.74;100402.89;1761420;81;21011;-61
2022/08/06 03:00:12;;;;;;;9.33;6.97;;;;;;;20.03;83.77;100397.33;1759572;81;21023;-61
2022/08/06 03:02:42;;;;;;;9.88;6.80;;;;;;;20.02;83.62;100410.40;1757620;81;21415;-61
2022/08/06 03:05:15;;;;;;;11.88;5.87;;;;;;;20.04;83.41;100408.75;1693060;84;21035;-62
2022/08/06 03:07:47;;;;;;;12.93;7.35;;;;;;;20.06;83.19;100416.28;1674761;84;21145;-61
2022/08/06 03:10:19;;;;;;;8.00;7.12;;;;;;;20.06;83.15;100419.06;1702045;84;21059;-62
2022/08/06 03:12:50;;;;;;;8.85;6.67;;;;;;;20.06;83.25;100420.45;1669867;84;21016;-61
2022/08/06 03:15:20;;;;;;;8.73;7.03;;;;;;;20.03;83.13;100418.20;1720475;82;21115;-61
2022/08/06 03:17:58;;;;;;;9.73;6.70;;;;;;;19.99;83.26;100414.25;1744904;82;21103;-62
2022/08/06 03:20:26;;;;;;;8.15;6.80;;;;;;;20.02;83.23;100416.52;1748701;82;21088;-62
2022/08/06 03:22:59;;;;;;;10.00;6.83;;;;;;;20.00;83.24;100418.16;1748929;81;21094;-62
2022/08/06 03:25:29;;;;;;;10.90;7.12;;;;;;;19.98;83.41;100418.97;1750151;82;21038;-62
2022/08/06 03:27:59;;;;;;;16.82;7.47;;;;;;;19.91;83.66;100417.78;1710032;83;21015;-61
2022/08/06 03:30:31;;;;;;;10.05;7.20;;;;;;;19.89;83.88;100414.41;1702856;84;21086;-61
2022/08/06 03:33:06;;;;;;;10.03;7.60;;;;;;;19.92;84.01;100425.02;1735631;83;21427;-61
2022/08/06 03:35:38;;;;;;;12.35;7.78;;;;;;;19.92;84.05;100429.19;1709816;83;21067;-61
2022/08/06 03:38:10;;;;;;;9.63;7.90;;;;;;;19.94;84.07;100431.16;1699891;84;21039;-63
2022/08/06 03:40:43;;;;;;;13.88;7.85;;;;;;;19.95;84.03;100427.28;1589315;90;21129;-61
2022/08/06 03:43:15;;;;;;;9.15;7.30;;;;;;;19.98;83.90;100431.48;1599262;89;21063;-62
2022/08/06 03:45:51;;;;;;;11.20;7.80;;;;;;;20.02;83.68;100429.03;1635559;87;21077;-61
2022/08/06 03:48:25;;;;;;;10.63;8.20;;;;;;;20.04;83.63;100431.00;1637493;87;21049;-62
2022/08/06 03:50:55;;;;;;;9.75;8.20;;;;;;;20.08;83.42;100437.17;1637141;87;21053;-61
2022/08/06 03:53:26;;;;;;;11.57;7.80;;;;;;;20.11;83.17;100439.98;1637242;87;21078;-62
2022/08/06 03:55:58;;;;;;;8.30;6.65;;;;;;;20.14;83.24;100440.31;1637090;87;21057;-62
2022/08/06 03:58:29;;;;;;;10.30;7.67;;;;;;;20.18;83.28;100447.63;1637063;87;21089;-63
2022/08/06 04:01:04;;;;;;;8.85;7.60;;;;;;;20.21;83.33;100448.49;1635516;88;21514;-62
2022/08/06 04:03:35;;;;;;;10.25;8.00;;;;;;;20.23;83.31;100449.91;1628658;87;21502;-61
2022/08/06 04:06:11;;;;;;;11.53;7.87;;;;;;;20.24;83.24;100448.81;1728928;80;21083;-62
2022/08/06 04:08:42;;;;;;;9.55;7.33;;;;;;;20.31;83.23;100452.78;1745410;81;21498;-61
2022/08/06 04:11:12;;;;;;;10.23;7.40;;;;;;;20.39;82.99;100452.88;1746426;82;21063;-61
2022/08/06 04:13:44;;;;;;;10.30;7.72;;;;;;;20.46;82.85;100451.59;1666045;86;21492;-61
2022/08/06 04:16:18;;;;;;;8.65;7.55;;;;;;;20.51;82.70;100458.61;1742279;82;21071;-62
2022/08/06 04:18:49;;;;;;;10.82;7.42;;;;;;;20.55;82.48;100456.98;1667035;86;21036;-61
2022/08/06 04:21:22;;;;;;;9.73;7.45;;;;;;;20.61;82.24;100462.60;1748789;81;21062;-62
2022/08/06 04:23:54;;;;;;;10.63;7.17;;;;;;;20.65;82.12;100460.42;1742326;82;21106;-62
2022/08/06 04:26:27;;;;;;;10.32;7.25;;;;;;;20.69;82.01;100459.34;1717883;82;21054;-62
2022/08/06 04:28:56;;;;;;;10.68;7.35;;;;;;;20.72;81.79;100460.21;1757359;81;21016;-62
2022/08/06 04:31:28;;;;;;;9.63;7.15;;;;;;;20.73;81.73;100457.71;1751480;81;21388;-61
2022/08/06 04:34:00;;;;;;;11.70;9.18;;;;;;;20.80;81.41;100459.73;1742934;81;21027;-62
2022/08/06 04:36:30;;;;;;;18.57;14.15;;;;;;;20.86;81.04;100460.94;1746337;82;21424;-61
2022/08/06 04:39:00;;;;;;;22.22;19.32;;;;;;;20.92;80.48;100457.66;1746620;81;21495;-63
2022/08/06 04:41:30;;;;;;;18.82;13.45;;;;;;;20.96;80.14;100456.02;1746685;80;21086;-60
2022/08/06 04:44:00;;;;;;;20.68;13.95;;;;;;;21.00;79.56;100450.20;1722386;81;21103;-62
2022/08/06 04:46:31;;;;;;;17.15;10.58;;;;;;;21.02;79.30;100454.95;1777056;80;21451;-62
2022/08/06 04:49:01;;;;;;;11.40;8.80;;;;;;;21.07;79.22;100452.21;1735609;82;21063;-62
2022/08/06 04:51:34;;;;;;;14.83;8.20;;;;;;;21.11;79.13;100448.34;1746419;82;21075;-62
2022/08/06 04:54:06;;;;;;;12.18;8.15;;;;;;;21.12;78.92;100460.61;1742008;82;21476;-62
2022/08/06 04:56:38;;;;;;;9.68;7.33;;;;;;;21.17;78.93;100460.66;1745822;81;21020;-62
2022/08/06 04:59:15;;;;;;;12.75;6.97;;;;;;;21.23;78.68;100467.14;1744570;82;21078;-61
2022/08/06 05:01:45;;;;;;;7.60;6.80;;;;;;;21.28;78.24;100464.39;1741006;81;21032;-62
2022/08/06 05:04:16;;;;;;;10.08;7.60;;;;;;;21.33;78.06;100467.77;1727392;81;21072;-62
2022/08/06 05:07:11;;;;;;;9.70;6.97;;;;;;;21.36;77.68;100463.89;1738623;82;21027;-62
2022/08/06 05:09:43;;;;;;;10.48;7.12;;;;;;;21.41;77.33;100457.52;1747031;82;21087;-62
2022/08/06 05:12:35;;;;;;;8.75;6.80;;;;;;;21.48;76.97;100459.00;1773149;81;21436;-61
2022/08/06 05:15:29;;;;;;;8.73;7.05;;;;;;;21.55;76.56;100462.11;1702482;83;21176;-62
2022/08/06 05:18:21;;;;;;;9.85;7.67;;;;;;;21.62;76.31;100457.13;1696756;84;21092;-62
2022/08/06 05:20:54;;;;;;;11.10;7.83;;;;;;;21.69;76.01;100453.55;1698283;84;21589;-63
2022/08/06 05:23:31;;;;;;;12.10;7.70;;;;;;;21.74;75.50;100451.63;1697101;84;21459;-62
2022/08/06 05:26:03;;;;;;;9.10;6.67;;;;;;;21.82;75.38;100455.30;1696925;84;21478;-62
2022/08/06 05:28:34;;;;;;;9.68;7.65;;;;;;;21.92;74.99;100455.06;1696962;84;21004;-65
2022/08/06 05:31:04;;;;;;;8.93;7.40;;;;;;;22.00;74.89;100453.16;1717536;83;21027;-61
2022/08/06 05:33:38;;;;;;;9.38;7.90;;;;;;;22.13;74.73;100454.11;1694322;83;21075;-61
2022/08/06 05:36:11;;;;;;;9.65;7.45;;;;;;;22.32;73.79;100455.30;1720036;83;21083;-66
2022/08/06 05:38:42;;;;;;;11.50;7.17;;;;;;;22.51;73.20;100454.79;1692113;83;21028;-64
2022/08/06 05:41:13;;;;;;;9.20;8.13;;;;;;;22.64;72.50;100455.66;1688548;85;21094;-62
2022/08/06 05:43:44;;;;;;;13.55;8.25;;;;;;;22.72;72.29;100463.49;1691441;85;21388;-62
2022/08/06 05:46:20;;;;;;;11.93;8.05;;;;;;;22.80;72.04;100465.80;1688721;85;21059;-62
2022/08/06 05:49:03;;;;;;;10.25;7.80;;;;;;;22.83;71.57;100464.41;1691423;84;21080;-62
2022/08/06 05:52:16;;;;;;;10.68;8.15;;;;;;;22.84;71.34;100465.53;1688253;85;21500;-62
2022/08/06 05:54:53;;;;;;;;;;;;;;;22.86;71.28;100467.49;1693781;85;21463;-63
2022/08/06 05:57:40;;;;;;;15.00;7.72;;;;;;;22.88;70.99;100466.66;1691355;85;20254;-63
2022/08/06 06:00:15;;;;;;;10.43;7.92;;;;;;;22.86;70.90;100461.90;1665389;83;21530;-63
2022/08/06 06:02:50;;;;;;;8.65;7.42;;;;;;;22.89;70.87;100459.11;1716203;83;21063;-62
2022/08/06 06:05:22;;;;;;;10.63;7.62;;;;;;;22.91;70.32;100460.51;1695757;83;21047;-64
2022/08/06 06:07:55;;;;;;;12.82;7.53;;;;;;;22.92;70.11;100460.80;1707501;83;21051;-61
2022/08/06 06:10:27;;;;;;;9.13;7.20;;;;;;;22.96;70.18;100454.92;1681082;85;21091;-61
2022/08/06 06:12:57;;;;;;;9.38;6.58;;;;;;;23.00;70.10;100453.25;1698989;84;21035;-63
2022/08/06 06:15:27;;;;;;;9.13;6.40;;;;;;;23.02;68.90;100462.20;1702631;82;21467;-63
2022/08/06 06:18:25;;;;;;;8.93;7.15;;;;;;;23.02;68.36;100460.80;1682867;85;21063;-62
2022/08/06 06:21:20;;;;;;;12.18;7.83;;;;;;;23.05;68.24;100457.45;1660253;84;21047;-61
2022/08/06 06:23:59;;;;;;;12.82;7.50;;;;;;;23.10;68.10;100453.81;1712232;82;21083;-63
2022/08/06 06:26:55;;;;;;;11.43;7.72;;;;;;;23.12;67.83;100445.98;1654487;87;21027;-62
2022/08/06 06:30:00;;;;;;;10.18;7.50;;;;;;;23.17;67.89;100454.93;1650738;87;21078;-63
2022/08/06 06:32:54;;;;;;;9.80;8.23;;;;;;;23.27;68.28;100451.56;1653975;87;21062;-61
2022/08/06 06:35:49;;;;;;;11.15;8.03;;;;;;;23.59;68.45;100449.91;1654704;87;21067;-63
2022/08/06 06:38:41;;;;;;;10.58;8.35;;;;;;;24.19;67.57;100448.62;1654102;87;21039;-61
2022/08/06 06:41:20;;;;;;;10.40;8.20;;;;;;;24.72;65.97;100444.19;1654721;87;21050;-61
2022/08/06 06:44:00;;;;;;;11.88;7.83;;;;;;;25.27;64.20;100443.49;1655257;84;21152;-63
2022/08/06 06:46:42;;;;;;;11.03;8.73;;;;;;;25.94;61.97;100439.48;1697847;84;21511;-63
2022/08/06 06:49:21;;;;;;;12.37;8.05;;;;;;;26.48;60.26;100452.59;1680955;85;21048;-62
2022/08/06 06:51:57;;;;;;;9.03;7.53;;;;;;;26.84;58.47;100450.13;1694911;84;21499;-64
2022/08/06 06:54:45;;;;;;;11.63;7.73;;;;;;;27.23;56.98;100446.15;1679899;85;21047;-63
2022/08/06 06:57:20;;;;;;;13.70;7.85;;;;;;;27.55;55.35;100447.30;1695353;84;21040;-63
2022/08/06 06:59:53;;;;;;;12.05;7.37;;;;;;;27.75;55.17;100433.70;1681341;85;21103;-62
2022/08/06 07:02:28;;;;;;;9.65;7.53;;;;;;;27.91;54.53;100428.60;1678271;85;21498;-62
2022/08/06 07:05:02;;;;;;;21.23;10.45;;;;;;;28.04;53.60;100426.39;1699160;84;21075;-63
2022/08/06 07:07:35;;;;;;;10.43;8.25;;;;;;;28.21;52.96;100427.73;1683914;84;21067;-62
2022/08/06 07:10:06;;;;;;;12.33;8.23;;;;;;;28.33;52.56;100421.02;1716011;83;21003;-62
2022/08/06 07:12:37;;;;;;;12.43;7.75;;;;;;;28.54;52.36;100423.63;1690175;83;21059;-63
2022/08/06 07:15:08;;;;;;;12.50;8.15;;;;;;;28.78;51.60;100423.95;1691446;85;21039;-64
2022/08/06 07:17:39;;;;;;;14.95;7.72;;;;;;;29.00;51.32;100429.06;1714365;83;21181;-63
2022/08/06 07:20:11;;;;;;;9.33;7.28;;;;;;;29.27;50.14;100424.47;1719656;83;21015;-61
2022/08/06 07:22:43;;;;;;;9.05;7.92;;;;;;;29.64;49.33;100432.52;1728161;83;21031;-62
2022/08/06 07:25:15;;;;;;;10.58;7.58;;;;;;;29.87;48.22;100426.23;1703529;83;21023;-63
2022/08/06 07:27:49;;;;;;;8.95;8.00;;;;;;;29.94;47.95;100430.86;1718247;82;21020;-62
2022/08/06 07:30:20;;;;;;;10.63;7.70;;;;;;;29.92;47.91;100418.22;1719628;83;21071;-63
2022/08/06 07:32:52;;;;;;;9.73;7.15;;;;;;;30.04;47.79;100412.80;1715424;83;21075;-62
2022/08/06 07:35:21;;;;;;;10.03;7.80;;;;;;;30.23;46.48;100416.18;1734329;82;21498;-63
2022/08/06 07:37:56;;;;;;;9.05;7.40;;;;;;;30.46;46.16;100423.13;1718461;83;21029;-66
2022/08/06 07:40:31;;;;;;;8.28;7.12;;;;;;;30.72;45.86;100421.22;1718238;83;21037;-64
2022/08/06 07:43:17;;;;;;;8.23;7.40;;;;;;;30.90;44.79;100417.80;1689793;83;21052;-67
2022/08/06 07:45:48;;;;;;;8.30;7.47;;;;;;;30.94;44.47;100426.46;1708872;83;21487;-63
2022/08/06 07:48:32;;;;;;;8.53;7.37;;;;;;;30.96;44.52;100424.96;1708426;83;21051;-63
2022/08/06 07:51:03;;;;;;;11.08;6.83;;;;;;;31.01;44.03;100424.78;1716477;83;21084;-63
2022/08/06 07:53:37;;;;;;;9.03;7.47;;;;;;;31.00;43.93;100416.63;1700768;83;21059;-64
2022/08/06 07:56:09;;;;;;;9.10;7.55;;;;;;;31.01;43.86;100421.95;1686807;85;21102;-63
2022/08/06 07:58:40;;;;;;;9.48;7.70;;;;;;;31.04;43.91;100418.45;1665259;85;21149;-63
2022/08/06 08:01:12;;;;;;;9.68;8.30;;;;;;;31.09;43.83;100419.70;1704014;83;21495;-62
2022/08/06 08:06:33;;;;;;;11.75;8.45;;;;;;;31.31;43.23;100417.31;1714808;83;21591;-62
2022/08/06 08:09:15;;;;;;;9.23;8.25;;;;;;;31.31;43.41;100415.06;1712194;83;21044;-62
2022/08/06 08:11:46;;;;;;;10.82;8.33;;;;;;;31.23;44.11;100408.84;1702430;84;21022;-62
2022/08/06 08:14:20;;;;;;;9.18;8.28;;;;;;;31.28;44.39;100411.49;1698040;83;21011;-63
2022/08/06 08:16:51;;;;;;;12.53;8.30;;;;;;;31.45;44.17;100411.45;1705544;84;21121;-62
2022/08/06 08:19:32;;;;;;;12.43;7.55;;;;;;;31.57;43.44;100415.83;1702242;84;21066;-61
2022/08/06 08:22:14;;;;;;;8.53;7.62;;;;;;;31.72;42.60;100411.64;1732675;83;21099;-70
2022/08/06 08:24:45;;;;;;;8.58;7.65;;;;;;;31.89;42.05;100410.77;1703826;83;21078;-62
2022/08/06 08:27:16;;;;;;;11.33;7.72;;;;;;;32.04;41.57;100411.02;1678299;84;21066;-62
2022/08/06 08:29:46;;;;;;;9.13;7.58;;;;;;;32.11;41.48;100403.39;1734582;83;21498;-65
2022/08/06 08:32:17;;;;;;;8.75;7.22;;;;;;;32.15;41.29;100408.62;1727246;83;21550;-63
2022/08/06 08:34:48;;;;;;;11.63;8.68;;;;;;;32.19;41.08;100398.84;1626871;87;21054;-62
2022/08/06 08:37:20;;;;;;;11.03;7.58;;;;;;;32.33;40.35;100401.70;1654377;87;21079;-61
2022/08/06 08:39:50;;;;;;;8.93;7.87;;;;;;;32.39;40.21;100390.40;1619367;88;21515;-62
2022/08/06 08:42:36;;;;;;;11.68;8.23;;;;;;;32.42;40.29;100393.96;1653863;87;21079;-61
2022/08/06 08:45:07;;;;;;;9.70;7.87;;;;;;;32.57;39.79;100398.81;1621655;88;21223;-61
2022/08/06 08:47:44;;;;;;;9.65;8.18;;;;;;;32.47;40.06;100394.34;1649389;87;21514;-62
2022/08/06 08:50:17;;;;;;;11.03;8.40;;;;;;;32.30;40.58;100393.88;1619922;88;21103;-61
2022/08/06 08:52:48;;;;;;;10.25;8.80;;;;;;;32.26;40.62;100399.17;1648355;85;21050;-62
2022/08/06 08:55:22;;;;;;;12.47;8.03;;;;;;;32.42;40.59;100395.38;1620675;88;21144;-61
2022/08/06 08:57:55;;;;;;;9.48;7.42;;;;;;;32.50;40.31;100402.17;1620619;88;21723;-62
2022/08/06 09:00:27;;;;;;;8.85;7.95;;;;;;;32.55;39.15;100389.81;1699026;84;21074;-62
2022/08/06 09:02:56;;;;;;;12.75;8.73;;;;;;;32.57;39.27;100395.39;1706330;84;21035;-62
2022/08/06 09:05:28;;;;;;;8.53;7.62;;;;;;;32.59;39.56;100393.03;1706005;84;21070;-63
2022/08/06 09:07:59;;;;;;;9.98;8.03;;;;;;;32.59;39.98;100393.03;1705965;84;21043;-61
2022/08/06 09:10:30;;;;;;;10.43;8.15;;;;;;;32.51;40.11;100388.81;1706075;84;21039;-61
2022/08/06 09:13:02;;;;;;;11.35;7.60;;;;;;;32.30;40.42;100398.13;1709321;83;21524;-62
2022/08/06 09:15:34;;;;;;;8.63;7.70;;;;;;;32.04;41.08;100396.02;1696970;83;21074;-61
2022/08/06 09:18:06;;;;;;;9.63;8.63;;;;;;;31.91;41.23;100394.25;1724877;83;21143;-61
2022/08/06 09:20:37;;;;;;;8.85;7.95;;;;;;;31.80;41.46;100396.02;1703717;83;21532;-61
2022/08/06 09:23:08;;;;;;;10.20;8.00;;;;;;;31.61;41.52;100404.65;1705652;83;21805;-61
2022/08/06 09:25:42;;;;;;;8.90;8.00;;;;;;;31.41;41.93;100404.80;1706380;84;21520;-63
2022/08/06 09:28:34;;;;;;;8.70;7.75;;;;;;;31.32;41.84;100388.41;1705729;83;21544;-61
2022/08/06 09:31:14;;;;;;;9.70;8.20;;;;;;;31.16;42.08;100393.16;1698814;83;21118;-62
2022/08/06 09:34:03;;;;;;;9.75;7.97;;;;;;;31.01;42.46;100398.48;1704324;84;21039;-62
2022/08/06 09:36:45;;;;;;;9.98;8.25;;;;;;;30.91;42.54;100396.83;1702318;84;21033;-61
2022/08/06 09:39:15;;;;;;;12.78;8.05;;;;;;;30.82;43.13;100399.66;1706204;84;21025;-61
2022/08/06 09:41:49;;;;;;;9.65;8.25;;;;;;;30.59;43.72;100404.66;1705413;84;21446;-62
2022/08/06 09:44:19;;;;;;;9.88;7.92;;;;;;;30.37;43.71;100401.91;1706165;84;21009;-61
2022/08/06 09:46:50;;;;;;;9.88;7.90;;;;;;;30.25;44.47;100396.06;1721043;83;21106;-61
2022/08/06 09:49:21;;;;;;;13.18;8.80;;;;;;;30.23;43.81;100399.22;1693955;85;21178;-61
2022/08/06 09:52:12;;;;;;;11.60;8.38;;;;;;;30.18;44.89;100390.89;1725344;82;21091;-61
2022/08/06 09:54:43;;;;;;;10.45;8.40;;;;;;;30.16;44.48;100398.04;1688417;85;21047;-60
2022/08/06 09:57:14;;;;;;;9.35;8.45;;;;;;;30.03;44.61;100397.02;1688273;85;21137;-63
2022/08/06 09:59:47;;;;;;;9.75;8.33;;;;;;;29.95;45.05;100391.55;1699090;84;21441;-62
2022/08/06 10:02:19;;;;;;;10.45;8.55;;;;;;;29.88;45.37;100386.92;1677684;84;21423;-61
2022/08/06 10:04:51;;;;;;;8.80;7.87;;;;;;;29.90;45.83;100390.26;1684859;83;21062;-62
2022/08/06 10:07:31;;;;;;;9.60;7.95;;;;;;;29.93;45.47;100395.86;1704783;84;21039;-61
2022/08/06 10:10:02;;;;;;;15.80;8.15;;;;;;;29.90;45.37;100394.50;1727740;83;21111;-63
2022/08/06 10:12:32;;;;;;;8.85;7.95;;;;;;;29.94;45.38;100397.53;1731149;83;21512;-65
2022/08/06 10:15:02;;;;;;;9.48;8.03;;;;;;;29.92;44.71;100404.92;1734914;83;21054;-64
2022/08/06 10:17:31;;;;;;;10.30;8.00;;;;;;;29.75;44.91;100396.34;1714311;83;21043;-64
2022/08/06 10:20:09;;;;;;;8.90;8.00;;;;;;;29.57;45.96;100388.97;1702462;84;21066;-65
2022/08/06 10:22:51;;;;;;;9.03;7.90;;;;;;;29.57;45.96;100388.97;1706197;84;21014;-67
2022/08/06 10:25:21;;;;;;;9.23;7.75;;;;;;;29.57;45.90;100386.14;1712797;83;21087;-63
2022/08/06 10:27:55;;;;;;;8.80;7.90;;;;;;;29.58;45.50;100386.39;1697078;84;21075;-68
2022/08/06 10:30:26;;;;;;;10.23;8.48;;;;;;;29.58;45.68;100387.80;1710048;84;21103;-66
2022/08/06 10:33:01;;;;;;;10.03;7.40;;;;;;;29.59;46.00;100391.71;1709736;83;21106;-71
2022/08/06 10:35:30;;;;;;;12.15;9.98;;;;;;;29.56;44.63;100386.72;1705842;84;21451;-67
2022/08/06 10:38:06;;;;;;;13.00;7.78;;;;;;;29.43;45.24;100387.65;1706059;84;21070;-65
2022/08/06 10:40:38;;;;;;;9.73;8.28;;;;;;;29.43;45.24;100387.65;1705443;84;21035;-70
2022/08/06 10:43:10;;;;;;;9.63;8.08;;;;;;;29.36;45.46;100387.25;1706012;84;21121;-71
2022/08/06 10:45:41;;;;;;;7.97;7.17;;;;;;;29.31;45.66;100378.34;1706072;84;21090;-71
2022/08/06 10:48:12;;;;;;;7.70;6.05;;;;;;;29.34;45.77;100386.73;1705075;84;21536;-72
2022/08/06 10:50:45;;;;;;;11.83;7.20;;;;;;;29.32;45.94;100384.23;1702270;84;21050;-75
2022/08/06 10:53:16;;;;;;;9.00;6.70;;;;;;;29.33;45.79;100381.67;1724225;83;21006;-73
2022/08/06 10:55:47;;;;;;;10.00;7.08;;;;;;;29.44;44.84;100380.84;1722490;83;21051;-75
2022/08/06 10:58:17;;;;;;;11.63;6.92;;;;;;;29.51;45.34;100391.67;1725794;83;21142;-74
2022/08/06 11:00:46;;;;;;;10.58;6.95;;;;;;;29.49;44.66;100379.30;1725932;83;21039;-74
2022/08/06 11:03:31;;;;;;;7.33;6.62;;;;;;;29.44;44.82;100383.66;1690804;83;21039;-73
2022/08/06 11:06:50;;;;;;;19.20;6.58;;;;;;;29.41;45.14;100389.09;1699149;84;21093;-75
2022/08/06 11:09:56;;;;;;;7.78;6.62;;;;;;;29.37;44.36;100388.08;1724096;83;21046;-72
2022/08/06 11:12:55;;;;;;;8.13;6.75;;;;;;;29.18;44.59;100381.22;1707436;83;21031;-73
2022/08/06 11:15:23;;;;;;;7.30;6.47;;;;;;;29.07;44.66;100372.77;1766138;81;21075;-70
2022/08/06 11:17:57;;;;;;;7.47;6.62;;;;;;;29.06;44.77;100369.68;1763266;80;20979;-73
2022/08/06 11:20:44;;;;;;;8.38;6.40;;;;;;;28.98;44.45;100374.11;1743289;81;20991;-80
2022/08/06 11:23:20;;;;;;;9.30;6.62;;;;;;;28.89;44.97;100365.59;1761874;81;21078;-78
2022/08/06 11:25:54;;;;;;;9.85;6.45;;;;;;;28.89;45.45;100359.11;1758905;81;21460;-82
2022/08/06 11:31:34;;;;;;;6.58;5.95;;;;;;;29.12;45.52;100366.98;1631187;86;21130;-73
2022/08/06 11:34:13;;;;;;;8.35;6.03;;;;;;;29.12;44.77;100364.16;1636147;88;21133;-75
2022/08/06 11:36:56;;;;;;;7.00;6.28;;;;;;;29.07;45.12;100365.13;1604048;89;21082;-75
2022/08/06 11:39:27;;;;;;;9.23;6.50;;;;;;;28.94;45.39;100361.80;1636077;88;21539;-76
2022/08/06 11:42:01;;;;;;;7.62;6.70;;;;;;;28.94;45.39;100361.80;1603987;89;21491;-75
2022/08/06 11:44:32;;;;;;;7.20;6.50;;;;;;;28.88;46.07;100355.46;1636062;88;21109;-75
2022/08/06 11:47:09;;;;;;;6.92;6.22;;;;;;;28.88;46.08;100366.74;1604194;88;21079;-75
2022/08/06 11:49:45;;;;;;;7.37;6.17;;;;;;;28.90;46.14;100365.02;1619500;88;21110;-76
2022/08/06 11:52:41;;;;;;;6.60;5.97;;;;;;;28.96;46.07;100363.15;1619232;88;21514;-75
2022/08/06 11:55:14;;;;;;;8.53;6.30;;;;;;;29.02;45.49;100365.27;1636228;87;21102;-77
2022/08/06 11:57:45;;;;;;;7.75;6.08;;;;;;;29.09;45.31;100367.62;1630555;87;21126;-77
2022/08/06 12:00:22;;;;;;;7.37;6.25;;;;;;;29.11;45.07;100364.73;1604075;89;21488;-75
2022/08/06 12:02:54;;;;;;;12.43;6.83;;;;;;;29.10;44.93;100365.06;1630985;88;21600;-75
2022/08/06 12:05:32;;;;;;;8.28;6.03;;;;;;;29.08;45.10;100366.80;1631354;87;21425;-76